createdAt,value
2019-04-03T00:01:13.969Z,54.96
2019-04-03T00:06:08.604Z,55.68
2019-04-03T00:11:03.214Z,56.24
2019-04-03T00:15:57.791Z,56.70
2019-04-03T00:20:52.387Z,56.38
2019-04-03T00:25:46.982Z,56.39
2019-04-03T00:30:41.601Z,55.56
2019-04-03T00:35:36.184Z,55.79
2019-04-03T00:40:30.788Z,56.34
2019-04-03T00:45:25.435Z,56.07
2019-04-03T00:50:20.103Z,55.69
2019-04-03T00:55:14.704Z,55.79
2019-04-03T01:00:13.967Z,55.86
2019-04-03T01:05:08.637Z,55.75
2019-04-03T01:10:03.261Z,55.62
2019-04-03T01:14:57.832Z,55.82
2019-04-03T01:19:52.439Z,56.49
2019-04-03T01:24:47.108Z,56.97
2019-04-03T01:29:42.951Z,56.57
2019-04-03T01:34:37.771Z,56.46
2019-04-03T01:39:32.403Z,56.96
2019-04-03T01:44:26.991Z,57.93
2019-04-03T01:49:21.744Z,58.85
2019-04-03T01:54:16.279Z,59.15
2019-04-03T01:59:10.954Z,59.80
2019-04-03T02:04:05.805Z,60.20
2019-04-03T02:09:00.517Z,60.59
2019-04-03T02:13:55.095Z,60.83
2019-04-03T02:18:49.802Z,60.98
2019-04-03T02:23:44.394Z,60.14
2019-04-03T02:28:39.002Z,60.87
2019-04-03T02:33:33.953Z,61.10
2019-04-03T02:38:28.825Z,61.69
2019-04-03T02:43:23.427Z,61.67
2019-04-03T02:48:18.225Z,62.14
2019-04-03T02:53:13.640Z,62.36
2019-04-03T02:58:08.388Z,62.76
2019-04-03T03:03:02.969Z,62.67
2019-04-03T03:07:58.456Z,60.57
2019-04-03T03:12:53.402Z,59.92
2019-04-03T03:17:49.259Z,59.87
2019-04-03T03:22:44.487Z,58.33
2019-04-03T03:27:41.891Z,59.00
2019-04-03T03:32:37.547Z,59.08
2019-04-03T03:37:35.276Z,58.40
2019-04-03T03:42:32.398Z,58.49
2019-04-03T03:47:27.646Z,58.54
2019-04-03T03:52:23.713Z,58.17
2019-04-03T03:57:19.037Z,58.18
2019-04-03T04:02:13.912Z,58.22
2019-04-03T04:07:08.660Z,58.23
2019-04-03T04:12:05.984Z,58.83
2019-04-03T04:17:00.449Z,59.35
2019-04-03T04:21:55.586Z,59.90
2019-04-03T04:26:50.646Z,59.65
2019-04-03T04:31:45.282Z,60.49
2019-04-03T04:36:39.943Z,61.28
2019-04-03T04:41:34.601Z,62.28
2019-04-03T04:46:29.177Z,63.37
2019-04-03T04:51:25.701Z,64.01
2019-04-03T04:56:20.108Z,64.43
2019-04-03T05:01:17.012Z,64.62
2019-04-03T05:06:11.221Z,65.25
2019-04-03T05:11:07.552Z,65.63
2019-04-03T05:16:02.149Z,65.59
2019-04-03T05:20:56.733Z,65.65
2019-04-03T05:25:51.328Z,65.76
2019-04-03T05:30:45.987Z,65.31
2019-04-03T05:35:40.583Z,65.01
2019-04-03T05:40:35.189Z,63.69
2019-04-03T05:45:30.217Z,61.38
2019-04-03T05:50:26.470Z,58.05
2019-04-03T05:55:21.248Z,55.87
2019-04-03T06:00:16.628Z,55.51
2019-04-03T06:05:12.868Z,55.56
2019-04-03T06:10:08.704Z,55.28
2019-04-03T06:15:10.255Z,52.92
2019-04-03T06:20:11.263Z,52.31
2019-04-03T06:25:06.934Z,51.42
2019-04-03T06:30:02.034Z,49.76
2019-04-03T06:34:56.863Z,48.26
2019-04-03T06:39:51.626Z,47.72
2019-04-03T06:44:46.352Z,47.53
2019-04-03T06:49:41.163Z,48.41
2019-04-03T06:54:35.722Z,49.87
2019-04-03T06:59:30.525Z,50.55
2019-04-03T07:04:25.115Z,50.10
2019-04-03T07:09:23.998Z,49.34
2019-04-03T07:14:16.286Z,48.28
2019-04-03T07:19:11.288Z,48.79
2019-04-03T07:24:06.507Z,48.29
2019-04-03T07:29:01.414Z,47.94
2019-04-03T07:33:58.188Z,47.94
2019-04-03T07:38:58.012Z,46.89
2019-04-03T07:43:52.528Z,49.21
2019-04-03T07:48:47.783Z,47.36
2019-04-03T07:53:42.399Z,47.18
2019-04-03T07:58:36.975Z,47.43
2019-04-03T08:03:33.636Z,46.73
2019-04-03T08:08:33.683Z,47.77
2019-04-03T08:13:31.219Z,48.20
2019-04-03T08:18:31.155Z,48.23
2019-04-03T08:23:31.963Z,47.21
2019-04-03T08:28:31.630Z,46.92
2019-04-03T08:33:32.795Z,47.06
2019-04-03T08:38:32.924Z,46.67
2019-04-03T08:43:33.388Z,47.94
2019-04-03T08:48:32.856Z,48.40
2019-04-03T08:53:32.533Z,48.90
2019-04-03T08:58:32.572Z,47.63
2019-04-03T09:03:33.084Z,48.44
2019-04-03T09:08:30.442Z,48.27
2019-04-03T09:13:30.730Z,47.50
2019-04-03T09:18:37.471Z,47.78
2019-04-03T09:23:35.562Z,46.65
2019-04-03T09:28:32.288Z,43.82
2019-04-03T09:33:30.376Z,42.25
2019-04-03T09:38:30.888Z,42.19
2019-04-03T09:43:28.878Z,40.82
2019-04-03T09:48:28.796Z,42.08
2019-04-03T09:53:28.282Z,41.19
2019-04-03T09:58:26.399Z,41.40
2019-04-03T10:03:24.942Z,41.19
2019-04-03T10:08:25.595Z,42.37
2019-04-03T10:13:26.291Z,43.08
2019-04-03T10:18:26.465Z,42.72
2019-04-03T10:23:29.106Z,42.65
2019-04-03T10:28:29.837Z,42.59
2019-04-03T10:33:31.558Z,43.31
2019-04-03T10:38:31.936Z,43.14
2019-04-03T10:43:36.640Z,43.19
2019-04-03T10:48:40.129Z,42.34
2019-04-03T10:53:38.722Z,42.48
2019-04-03T10:58:41.888Z,42.15
2019-04-03T11:03:41.804Z,41.92
2019-04-03T11:08:40.115Z,42.23
2019-04-03T11:13:42.982Z,42.10
2019-04-03T11:18:40.922Z,42.48
2019-04-03T11:23:45.982Z,43.73
2019-04-03T11:28:43.754Z,43.95
2019-04-03T11:33:45.935Z,43.75
2019-04-03T11:38:51.490Z,43.72
2019-04-03T11:43:50.555Z,42.91
2019-04-03T11:48:56.534Z,40.07
2019-04-03T11:54:06.779Z,39.46
2019-04-03T11:59:09.560Z,39.65
2019-04-03T12:04:12.781Z,39.61
2019-04-03T12:09:16.226Z,40.20
2019-04-03T12:14:21.710Z,37.56
2019-04-03T12:19:24.698Z,36.79
2019-04-03T12:24:26.309Z,36.86
2019-04-03T12:29:28.843Z,36.89
2019-04-03T12:34:36.658Z,36.61
2019-04-03T12:39:34.360Z,36.71
2019-04-03T12:44:33.448Z,36.82
2019-04-03T12:49:36.880Z,36.53
2019-04-03T12:54:41.296Z,35.89
2019-04-03T12:59:48.828Z,35.37
2019-04-03T13:04:50.156Z,36.44
2019-04-03T13:09:51.313Z,39.01
2019-04-03T13:14:56.133Z,38.57
2019-04-03T13:20:06.801Z,37.84
2019-04-03T13:25:06.350Z,36.61
2019-04-03T13:30:11.950Z,34.66
2019-04-03T13:35:16.570Z,36.71
2019-04-03T13:40:23.458Z,37.32
2019-04-03T13:45:30.671Z,37.48
2019-04-03T13:50:30.923Z,36.50
2019-04-03T13:55:37.658Z,36.48
2019-04-03T14:00:40.748Z,36.18
2019-04-03T14:05:46.186Z,35.26
2019-04-03T14:10:48.530Z,34.38
2019-04-03T14:15:50.902Z,35.02
2019-04-03T14:20:52.054Z,33.57
2019-04-03T14:26:04.395Z,33.45
2019-04-03T14:30:56.942Z,32.90
2019-04-03T14:35:55.711Z,32.88
2019-04-03T14:41:00.409Z,33.84
2019-04-03T14:46:02.769Z,33.53
2019-04-03T14:51:07.708Z,33.85
2019-04-03T14:56:07.126Z,34.05
2019-04-03T15:01:06.558Z,34.37
2019-04-03T15:06:06.817Z,34.57
2019-04-03T15:11:05.589Z,34.07
2019-04-03T15:16:04.550Z,33.87
2019-04-03T15:21:06.053Z,33.97
2019-04-03T15:26:06.302Z,33.54
2019-04-03T15:31:05.940Z,33.86
2019-04-03T15:36:05.727Z,36.84
2019-04-03T15:41:02.775Z,44.56
2019-04-03T15:46:05.326Z,48.14
2019-04-03T15:51:05.585Z,51.19
2019-04-03T15:56:03.955Z,53.58
2019-04-03T16:01:08.316Z,55.29
2019-04-03T16:06:07.652Z,56.31
2019-04-03T16:11:08.488Z,57.41
2019-04-03T16:16:07.477Z,57.59
2019-04-03T16:21:07.547Z,57.51
2019-04-03T16:26:02.334Z,58.21
2019-04-03T16:30:57.024Z,59.24
2019-04-03T16:35:51.686Z,59.79
2019-04-03T16:40:46.947Z,60.01
2019-04-03T16:45:42.408Z,59.80
2019-04-03T16:50:37.350Z,59.05
2019-04-03T16:55:31.976Z,58.88
2019-04-03T17:00:27.495Z,58.72
2019-04-03T17:05:22.332Z,59.44
2019-04-03T17:10:17.230Z,59.00
2019-04-03T17:15:12.446Z,58.58
2019-04-03T17:20:10.254Z,57.96
2019-04-03T17:25:07.965Z,58.38
2019-04-03T17:30:03.098Z,59.22
2019-04-03T17:34:57.837Z,58.94
2019-04-03T17:39:52.556Z,59.31
2019-04-03T17:44:47.266Z,58.88
2019-04-03T17:49:41.824Z,59.61
2019-04-03T17:54:38.258Z,60.17
2019-04-03T17:59:32.708Z,60.87
2019-04-03T18:04:27.308Z,61.64
2019-04-03T18:09:22.123Z,61.45
2019-04-03T18:14:16.760Z,61.65
2019-04-03T18:19:11.351Z,62.16
2019-04-03T18:24:06.183Z,62.31
2019-04-03T18:29:00.771Z,61.94
2019-04-03T18:33:55.339Z,62.28
2019-04-03T18:38:49.912Z,62.59
2019-04-03T18:43:44.511Z,63.48
2019-04-03T18:48:39.096Z,63.54
2019-04-03T18:53:33.685Z,64.08
2019-04-03T18:58:28.243Z,64.19
2019-04-03T19:03:22.831Z,64.08
2019-04-03T19:08:18.230Z,63.91
2019-04-03T19:13:13.982Z,64.31
2019-04-03T19:18:19.287Z,64.35
2019-04-03T19:23:07.080Z,64.30
2019-04-03T19:28:04.010Z,64.02
2019-04-03T19:32:58.562Z,64.72
2019-04-03T19:37:53.186Z,64.89
2019-04-03T19:42:48.965Z,64.76
2019-04-03T19:47:43.733Z,64.57
2019-04-03T19:52:41.596Z,65.01
2019-04-03T19:57:34.686Z,65.37
2019-04-03T20:02:30.256Z,65.52
2019-04-03T20:07:26.769Z,65.66
2019-04-03T20:12:21.229Z,65.64
2019-04-03T20:17:22.795Z,65.70
2019-04-03T20:22:22.250Z,65.87
2019-04-03T20:27:22.496Z,65.80
2019-04-03T20:32:23.041Z,65.86
2019-04-03T20:37:22.289Z,65.69
2019-04-03T20:42:22.019Z,65.91
2019-04-03T20:47:19.449Z,66.32
2019-04-03T20:52:16.470Z,66.38
2019-04-03T20:57:16.182Z,66.88
2019-04-03T21:02:15.030Z,66.70
2019-04-03T21:07:12.718Z,66.92
2019-04-03T21:12:07.286Z,66.73
2019-04-03T21:17:01.859Z,66.93
2019-04-03T21:21:57.730Z,66.74
2019-04-03T21:26:52.764Z,67.01
2019-04-03T21:31:47.350Z,66.83
2019-04-03T21:36:41.916Z,67.33
2019-04-03T21:41:36.590Z,66.89
2019-04-03T21:46:31.211Z,66.85
2019-04-03T21:51:25.825Z,67.01
2019-04-03T21:56:20.391Z,67.27
2019-04-03T22:01:22.259Z,67.97
2019-04-03T22:06:16.918Z,68.24
2019-04-03T22:11:11.650Z,69.10
2019-04-03T22:16:06.447Z,69.36
2019-04-03T22:21:01.861Z,69.67
2019-04-03T22:25:57.393Z,69.98
2019-04-03T22:30:52.531Z,69.92
2019-04-03T22:35:47.440Z,69.66
2019-04-03T22:40:42.035Z,69.67
2019-04-03T22:45:36.610Z,69.12
2019-04-03T22:50:33.479Z,68.98
2019-04-03T22:55:28.670Z,69.81
2019-04-03T23:00:25.500Z,69.99
2019-04-03T23:05:19.604Z,69.77
2019-04-03T23:10:14.257Z,70.41
2019-04-03T23:15:09.683Z,71.16
2019-04-03T23:20:05.306Z,71.37
2019-04-03T23:25:00.150Z,70.30
2019-04-03T23:29:54.946Z,70.63
2019-04-03T23:34:50.094Z,70.08
2019-04-03T23:39:44.801Z,70.03
2019-04-03T23:44:41.886Z,70.35
2019-04-03T23:49:35.717Z,70.23
2019-04-03T23:54:30.299Z,70.19
2019-04-03T23:59:26.724Z,70.97
